createdAt,value
2022-10-18T00:02:19.913Z,15.45
2022-10-18T00:07:21.624Z,13.88
2022-10-18T00:12:23.154Z,17.35
2022-10-18T00:17:24.718Z,16.58
2022-10-18T00:22:26.239Z,16.23
2022-10-18T00:27:28.007Z,16.20
2022-10-18T00:32:29.929Z,17.85
2022-10-18T00:37:31.817Z,18.50
2022-10-18T00:42:33.891Z,20.02
2022-10-18T00:47:35.654Z,19.40
2022-10-18T00:52:37.406Z,16.48
2022-10-18T00:57:39.157Z,20.42
2022-10-18T01:02:40.686Z,20.90
2022-10-18T01:07:42.246Z,19.80
2022-10-18T01:12:43.804Z,20.17
2022-10-18T01:17:45.537Z,18.73
2022-10-18T01:22:47.309Z,26.38
2022-10-18T01:27:49.041Z,21.42
2022-10-18T01:32:50.805Z,22.20
2022-10-18T01:37:52.330Z,24.40
2022-10-18T01:42:54.107Z,21.90
2022-10-18T01:47:55.751Z,22.48
2022-10-18T01:52:57.502Z,21.42
2022-10-18T01:57:59.272Z,26.60
2022-10-18T02:03:00.805Z,23.23
2022-10-18T02:08:19.082Z,20.88
2022-10-18T02:13:23.984Z,22.65
2022-10-18T02:18:25.503Z,20.63
2022-10-18T02:23:27.144Z,24.17
2022-10-18T02:28:28.894Z,20.73
2022-10-18T02:33:30.674Z,22.40
2022-10-18T02:38:32.456Z,25.02
2022-10-18T02:43:34.181Z,20.23
2022-10-18T02:48:35.917Z,22.42
2022-10-18T02:53:37.693Z,21.77
2022-10-18T02:58:39.251Z,22.00
2022-10-18T03:03:40.804Z,22.55
2022-10-18T03:08:42.378Z,19.90
2022-10-18T03:13:44.083Z,22.23
2022-10-18T03:18:45.825Z,21.73
2022-10-18T03:23:47.588Z,22.75
2022-10-18T03:28:49.446Z,20.30
2022-10-18T03:33:51.034Z,20.33
2022-10-18T03:38:52.864Z,24.70
2022-10-18T03:43:54.605Z,20.85
2022-10-18T03:48:56.356Z,22.88
2022-10-18T03:53:58.127Z,23.83
2022-10-18T03:58:59.674Z,22.88
2022-10-18T04:04:01.288Z,27.27
2022-10-18T04:09:04.280Z,24.98
2022-10-18T04:14:08.387Z,38.30
2022-10-18T04:19:09.940Z,73.40
2022-10-18T04:24:11.547Z,71.85
2022-10-18T04:29:13.334Z,50.72
2022-10-18T04:34:14.833Z,65.75
2022-10-18T04:39:16.505Z,56.42
2022-10-18T04:44:18.258Z,53.63
2022-10-18T04:49:19.995Z,59.20
2022-10-18T04:54:23.868Z,48.65
2022-10-18T04:59:28.227Z,48.83
2022-10-18T05:04:29.750Z,46.85
2022-10-18T05:09:31.413Z,51.28
2022-10-18T05:14:33.167Z,53.55
2022-10-18T05:19:34.684Z,53.15
2022-10-18T05:24:36.368Z,46.08
2022-10-18T05:29:37.918Z,49.50
2022-10-18T05:34:39.549Z,67.57
2022-10-18T05:39:41.309Z,48.63
2022-10-18T05:44:42.811Z,36.17
2022-10-18T05:49:44.327Z,47.67
2022-10-18T05:54:45.870Z,60.17
2022-10-18T05:59:47.483Z,48.92
2022-10-18T06:04:49.144Z,40.88
2022-10-18T06:09:50.714Z,43.63
2022-10-18T06:14:52.232Z,36.00
2022-10-18T06:19:53.784Z,28.58
2022-10-18T06:24:57.270Z,30.25
2022-10-18T06:29:59.084Z,26.90
2022-10-18T06:35:00.606Z,25.45
2022-10-18T06:40:02.371Z,29.38
2022-10-18T06:45:03.979Z,25.20
2022-10-18T06:50:05.647Z,24.38
2022-10-18T06:55:09.221Z,22.48
2022-10-18T07:00:10.975Z,25.88
2022-10-18T07:05:12.710Z,21.70
2022-10-18T07:10:14.274Z,32.60
2022-10-18T07:15:15.905Z,25.75
2022-10-18T07:20:17.644Z,24.60
2022-10-18T07:25:19.412Z,29.20
2022-10-18T07:30:20.949Z,26.90
2022-10-18T07:35:22.471Z,23.60
2022-10-18T07:40:24.147Z,24.88
2022-10-18T07:45:25.954Z,18.25
2022-10-18T07:50:27.643Z,18.57
2022-10-18T07:55:29.453Z,16.08
2022-10-18T08:00:31.152Z,14.00
2022-10-18T08:10:39.363Z,17.08
2022-10-18T08:15:41.115Z,13.82
2022-10-18T08:20:42.645Z,13.23
2022-10-18T08:25:44.319Z,14.80
2022-10-18T08:30:45.822Z,13.85
2022-10-18T08:35:47.410Z,15.35
2022-10-18T08:40:48.956Z,16.38
2022-10-18T08:45:50.512Z,15.23
2022-10-18T08:50:52.065Z,16.92
2022-10-18T08:55:53.759Z,17.10
2022-10-18T09:00:55.309Z,18.40
2022-10-18T09:05:56.969Z,14.50
2022-10-18T09:16:05.216Z,15.35
2022-10-18T09:21:07.061Z,13.70
2022-10-18T09:26:08.730Z,12.98
2022-10-18T09:31:10.464Z,12.57
2022-10-18T09:36:12.222Z,14.43
2022-10-18T09:41:13.746Z,13.30
2022-10-18T09:46:15.299Z,12.60
2022-10-18T09:51:16.872Z,13.40
2022-10-18T09:56:18.440Z,11.88
2022-10-18T10:01:20.185Z,14.15
2022-10-18T10:06:21.959Z,14.57
2022-10-18T10:11:23.695Z,14.38
2022-10-18T10:16:25.247Z,15.00
2022-10-18T10:21:26.778Z,14.85
2022-10-18T10:26:28.316Z,18.02
2022-10-18T10:31:30.066Z,15.85
2022-10-18T10:36:31.581Z,14.48
2022-10-18T10:41:33.729Z,13.70
2022-10-18T10:46:35.495Z,14.73
2022-10-18T10:51:37.079Z,12.05
2022-10-18T10:56:38.707Z,13.60
2022-10-18T11:01:40.293Z,12.07
2022-10-18T11:06:41.817Z,15.00
2022-10-18T11:11:43.408Z,13.57
2022-10-18T11:16:44.938Z,15.98
2022-10-18T11:21:46.649Z,15.60
2022-10-18T11:26:48.870Z,14.70
2022-10-18T11:31:55.170Z,15.30
2022-10-18T11:37:15.963Z,13.70
2022-10-18T11:42:18.424Z,13.38
2022-10-18T11:47:20.187Z,13.68
2022-10-18T11:52:21.739Z,13.57
2022-10-18T11:57:23.410Z,14.52
2022-10-18T12:02:25.060Z,12.98
2022-10-18T12:07:30.276Z,17.05
2022-10-18T12:12:34.387Z,13.85
2022-10-18T12:17:44.082Z,15.18
2022-10-18T12:22:49.419Z,13.93
2022-10-18T12:27:51.101Z,15.07
2022-10-18T12:33:03.518Z,16.48
2022-10-18T12:38:14.400Z,15.45
2022-10-18T12:43:16.139Z,14.70
2022-10-18T12:48:17.666Z,18.92
2022-10-18T12:53:19.344Z,16.17
2022-10-18T12:58:20.870Z,25.38
2022-10-18T13:03:22.557Z,23.35
2022-10-18T13:08:24.102Z,19.75
2022-10-18T13:13:39.273Z,15.55
2022-10-18T13:18:42.212Z,19.15
2022-10-18T13:23:43.965Z,15.68
2022-10-18T13:28:45.753Z,14.88
2022-10-18T13:33:47.474Z,16.15
2022-10-18T13:38:49.220Z,13.88
2022-10-18T13:43:52.527Z,15.03
2022-10-18T13:48:54.301Z,14.18
2022-10-18T13:53:55.868Z,16.70
2022-10-18T13:59:06.143Z,21.45
2022-10-18T14:04:15.806Z,15.30
2022-10-18T14:09:26.212Z,20.70
2022-10-18T14:14:39.115Z,18.00
2022-10-18T14:19:40.856Z,20.00
2022-10-18T14:24:42.421Z,18.08
2022-10-18T14:29:44.144Z,11.93
2022-10-18T14:34:45.853Z,13.70
2022-10-18T14:39:47.591Z,10.60
2022-10-18T14:44:54.258Z,9.65
2022-10-18T14:49:57.354Z,8.20
2022-10-18T14:54:59.041Z,6.97
2022-10-18T15:00:00.630Z,6.88
2022-10-18T15:05:02.203Z,8.20
2022-10-18T15:10:03.761Z,4.88
2022-10-18T15:15:05.511Z,5.45
2022-10-18T15:20:07.082Z,4.97
2022-10-18T15:25:08.699Z,3.65
2022-10-18T15:30:10.236Z,6.97
2022-10-18T15:35:11.775Z,10.35
2022-10-18T15:40:13.329Z,6.88
2022-10-18T15:45:15.064Z,6.20
2022-10-18T15:50:16.828Z,6.72
2022-10-18T15:55:18.513Z,6.90
2022-10-18T16:00:20.086Z,5.57
2022-10-18T16:05:21.802Z,7.50
2022-10-18T16:10:23.450Z,8.65
2022-10-18T16:15:24.968Z,7.90
2022-10-18T16:20:26.522Z,8.07
2022-10-18T16:25:28.131Z,6.30
2022-10-18T16:30:29.791Z,7.95
2022-10-18T16:35:31.374Z,7.65
2022-10-18T16:40:34.628Z,13.65
2022-10-18T16:45:38.423Z,20.15
2022-10-18T16:50:40.172Z,22.60
2022-10-18T16:55:41.777Z,17.30
2022-10-18T17:00:43.661Z,18.27
2022-10-18T17:05:45.308Z,11.23
2022-10-18T17:10:47.150Z,16.63
2022-10-18T17:15:48.874Z,36.17
2022-10-18T17:20:50.556Z,44.67
2022-10-18T17:26:05.523Z,30.70
2022-10-18T17:31:10.426Z,17.08
2022-10-18T17:36:12.218Z,17.48
2022-10-18T17:41:13.980Z,14.63
2022-10-18T17:46:15.807Z,13.40
2022-10-18T17:51:17.491Z,28.95
2022-10-18T17:56:19.233Z,32.85
2022-10-18T18:01:20.986Z,38.30
2022-10-18T18:06:22.563Z,20.90
2022-10-18T18:11:24.184Z,17.67
2022-10-18T18:16:25.867Z,13.90
2022-10-18T18:21:27.719Z,13.65
2022-10-18T18:26:29.301Z,18.55
2022-10-18T18:31:34.528Z,15.10
2022-10-18T18:36:40.604Z,16.73
2022-10-18T18:41:42.267Z,18.05
2022-10-18T18:46:43.892Z,26.95
2022-10-18T18:51:45.520Z,26.83
2022-10-18T18:56:47.140Z,25.40
2022-10-18T19:01:49.102Z,20.17
2022-10-18T19:06:50.833Z,17.73
2022-10-18T19:11:52.536Z,17.60
2022-10-18T19:16:54.176Z,21.90
2022-10-18T19:21:55.713Z,16.05
2022-10-18T19:26:57.287Z,14.52
2022-10-18T19:31:58.833Z,17.60
2022-10-18T19:37:00.629Z,18.42
2022-10-18T19:42:02.153Z,22.17
2022-10-18T19:47:03.840Z,65.00
2022-10-18T19:52:05.363Z,54.65
2022-10-18T19:57:06.934Z,34.20
2022-10-18T20:02:08.774Z,31.05
2022-10-18T20:07:10.300Z,27.67
2022-10-18T20:12:11.848Z,24.83
2022-10-18T20:17:13.431Z,28.88
2022-10-18T20:22:15.166Z,31.40
2022-10-18T20:27:16.964Z,38.78
2022-10-18T20:32:18.668Z,43.90
2022-10-18T20:37:20.203Z,39.80
2022-10-18T20:42:21.869Z,35.88
2022-10-18T20:47:23.619Z,36.70
2022-10-18T20:52:25.362Z,32.67
2022-10-18T20:57:26.927Z,38.70
2022-10-18T21:02:28.528Z,40.67
2022-10-18T21:07:30.672Z,42.97
2022-10-18T21:12:34.102Z,43.83
2022-10-18T21:17:36.670Z,37.97
2022-10-18T21:22:38.383Z,39.15
2022-10-18T21:27:40.185Z,33.33
2022-10-18T21:32:41.904Z,36.08
2022-10-18T21:37:43.436Z,30.50
2022-10-18T21:42:44.980Z,33.08
2022-10-18T21:47:46.652Z,33.53
2022-10-18T21:52:48.237Z,37.38
2022-10-18T21:57:49.761Z,33.72
2022-10-18T22:02:51.495Z,40.15
2022-10-18T22:07:53.276Z,37.13
2022-10-18T22:12:55.025Z,31.65
2022-10-18T22:17:56.806Z,45.15
2022-10-18T22:22:58.496Z,42.47
2022-10-18T22:28:00.267Z,38.60
2022-10-18T22:33:02.031Z,41.85
2022-10-18T22:38:03.807Z,53.25
2022-10-18T22:43:05.431Z,42.55
2022-10-18T22:48:06.983Z,24.20
2022-10-18T22:53:08.736Z,26.75
2022-10-18T22:58:10.486Z,22.73
2022-10-18T23:03:12.255Z,20.05
2022-10-18T23:08:13.782Z,21.10
2022-10-18T23:13:15.313Z,20.98
2022-10-18T23:18:16.880Z,19.75
2022-10-18T23:23:18.672Z,20.08
2022-10-18T23:28:20.389Z,19.60
2022-10-18T23:33:22.158Z,25.10
2022-10-18T23:38:23.900Z,20.90
2022-10-18T23:43:25.421Z,21.73
2022-10-18T23:48:27.092Z,20.92
2022-10-18T23:53:28.854Z,27.60
2022-10-18T23:58:30.620Z,24.17
